sensor_id;sensor_type;location;lat;lon;timestamp;pressure;altitude;pressure_sealevel;temperature;humidity
70407;BME280;57821;52.202;0.154;2022-10-18T00:00:46;102553.50;;;10.68;71.14
70407;BME280;57821;52.202;0.154;2022-10-18T00:03:13;102556.91;;;10.65;71.24
70407;BME280;57821;52.202;0.154;2022-10-18T00:05:39;102549.97;;;10.64;71.26
70407;BME280;57821;52.202;0.154;2022-10-18T00:08:06;102546.44;;;10.62;71.60
70407;BME280;57821;52.202;0.154;2022-10-18T00:10:32;102553.31;;;10.60;71.10
70407;BME280;57821;52.202;0.154;2022-10-18T00:12:59;102545.50;;;10.59;71.47
70407;BME280;57821;52.202;0.154;2022-10-18T00:15:25;102544.69;;;10.61;72.14
70407;BME280;57821;52.202;0.154;2022-10-18T00:17:52;102548.13;;;10.60;71.75
70407;BME280;57821;52.202;0.154;2022-10-18T00:20:18;102531.47;;;10.51;71.33
70407;BME280;57821;52.202;0.154;2022-10-18T00:22:45;102555.88;;;10.59;71.40
70407;BME280;57821;52.202;0.154;2022-10-18T00:25:13;102552.31;;;10.55;71.54
70407;BME280;57821;52.202;0.154;2022-10-18T00:27:40;102555.78;;;10.56;71.22
70407;BME280;57821;52.202;0.154;2022-10-18T00:30:07;102554.91;;;10.55;71.35
70407;BME280;57821;52.202;0.154;2022-10-18T00:32:41;102553.97;;;10.52;72.27
70407;BME280;57821;52.202;0.154;2022-10-18T00:35:08;102550.53;;;10.53;71.91
70407;BME280;57821;52.202;0.154;2022-10-18T00:37:35;102554.84;;;10.52;72.11
70407;BME280;57821;52.202;0.154;2022-10-18T00:40:01;102553.09;;;10.51;71.88
70407;BME280;57821;52.202;0.154;2022-10-18T00:42:32;102553.03;;;10.48;72.23
70407;BME280;57821;52.202;0.154;2022-10-18T00:45:15;102547.75;;;10.45;71.97
70407;BME280;57821;52.202;0.154;2022-10-18T00:47:46;102537.06;;;10.33;71.94
70407;BME280;57821;52.202;0.154;2022-10-18T00:50:14;102570.09;;;10.40;71.58
70407;BME280;57821;52.202;0.154;2022-10-18T00:52:44;102559.56;;;10.34;72.17
70407;BME280;57821;52.202;0.154;2022-10-18T00:55:12;102556.97;;;10.34;72.17
70407;BME280;57821;52.202;0.154;2022-10-18T00:57:40;102552.47;;;10.27;72.31
70407;BME280;57821;52.202;0.154;2022-10-18T01:00:09;102564.59;;;10.28;71.84
70407;BME280;57821;52.202;0.154;2022-10-18T01:02:36;102578.31;;;10.24;71.79
70407;BME280;57821;52.202;0.154;2022-10-18T01:05:04;102576.41;;;10.17;72.08
70407;BME280;57821;52.202;0.154;2022-10-18T01:13:23;102598.59;;;10.09;72.35
70407;BME280;57821;52.202;0.154;2022-10-18T01:16:00;102572.28;;;9.94;72.50
70407;BME280;57821;52.202;0.154;2022-10-18T01:18:48;102594.06;;;10.02;72.39
70407;BME280;57821;52.202;0.154;2022-10-18T01:27:23;102611.03;;;9.90;72.23
70407;BME280;57821;52.202;0.154;2022-10-18T01:32:50;102596.72;;;9.73;73.00
70407;BME280;57821;52.202;0.154;2022-10-18T01:35:23;102621.19;;;9.83;72.82
70407;BME280;57821;52.202;0.154;2022-10-18T01:37:53;102615.84;;;9.77;72.17
70407;BME280;57821;52.202;0.154;2022-10-18T01:40:22;102614.97;;;9.76;72.23
70407;BME280;57821;52.202;0.154;2022-10-18T01:42:49;102619.19;;;9.74;72.68
70407;BME280;57821;52.202;0.154;2022-10-18T01:45:17;102624.31;;;9.71;72.24
70407;BME280;57821;52.202;0.154;2022-10-18T01:47:45;102623.31;;;9.68;72.82
70407;BME280;57821;52.202;0.154;2022-10-18T01:50:12;102622.31;;;9.63;72.78
70407;BME280;57821;52.202;0.154;2022-10-18T01:52:49;102619.66;;;9.61;72.76
70407;BME280;57821;52.202;0.154;2022-10-18T01:55:16;102621.25;;;9.56;72.36
70407;BME280;57821;52.202;0.154;2022-10-18T01:58:20;102633.28;;;9.54;72.60
70407;BME280;57821;52.202;0.154;2022-10-18T02:00:57;102609.56;;;9.40;72.50
70407;BME280;57821;52.202;0.154;2022-10-18T02:03:27;102634.00;;;9.48;73.08
70407;BME280;57821;52.202;0.154;2022-10-18T02:06:06;102621.69;;;9.41;72.75
70407;BME280;57821;52.202;0.154;2022-10-18T02:08:53;102616.13;;;9.29;73.16
70407;BME280;57821;52.202;0.154;2022-10-18T02:11:24;102635.44;;;9.40;73.41
70407;BME280;57821;52.202;0.154;2022-10-18T02:13:53;102633.59;;;9.36;72.85
70407;BME280;57821;52.202;0.154;2022-10-18T02:16:22;102632.63;;;9.33;73.10
70407;BME280;57821;52.202;0.154;2022-10-18T02:21:42;102634.09;;;9.25;73.23
70407;BME280;57821;52.202;0.154;2022-10-18T02:24:12;102645.28;;;9.24;73.13
70407;BME280;57821;52.202;0.154;2022-10-18T02:26:39;102637.41;;;9.21;73.36
70407;BME280;57821;52.202;0.154;2022-10-18T02:29:06;102625.13;;;9.14;73.00
70407;BME280;57821;52.202;0.154;2022-10-18T02:32:00;102630.31;;;9.14;73.26
70407;BME280;57821;52.202;0.154;2022-10-18T02:34:39;102617.88;;;9.03;73.49
70407;BME280;57821;52.202;0.154;2022-10-18T02:37:09;102631.13;;;9.13;72.99
70407;BME280;57821;52.202;0.154;2022-10-18T02:39:40;102631.00;;;9.08;73.08
70407;BME280;57821;52.202;0.154;2022-10-18T02:42:09;102622.84;;;8.97;73.07
70407;BME280;57821;52.202;0.154;2022-10-18T02:44:36;102646.50;;;9.08;73.56
70407;BME280;57821;52.202;0.154;2022-10-18T02:47:05;102638.63;;;9.05;73.33
70407;BME280;57821;52.202;0.154;2022-10-18T02:49:31;102637.66;;;9.01;73.51
70407;BME280;57821;52.202;0.154;2022-10-18T02:51:58;102647.09;;;8.99;73.70
70407;BME280;57821;52.202;0.154;2022-10-18T02:54:24;102652.25;;;8.99;73.24
70407;BME280;57821;52.202;0.154;2022-10-18T02:56:51;102656.50;;;8.97;73.45
70407;BME280;57821;52.202;0.154;2022-10-18T02:59:17;102657.28;;;8.95;73.22
70407;BME280;57821;52.202;0.154;2022-10-18T03:01:44;102662.41;;;8.93;73.37
70407;BME280;57821;52.202;0.154;2022-10-18T03:04:10;102662.34;;;8.92;73.49
70407;BME280;57821;52.202;0.154;2022-10-18T03:06:37;102666.59;;;8.90;73.33
70407;BME280;57821;52.202;0.154;2022-10-18T03:09:04;102657.09;;;8.89;73.66
70407;BME280;57821;52.202;0.154;2022-10-18T03:11:31;102663.03;;;8.86;73.91
70407;BME280;57821;52.202;0.154;2022-10-18T03:13:57;102666.44;;;8.85;73.81
70407;BME280;57821;52.202;0.154;2022-10-18T03:16:24;102657.56;;;8.77;73.73
70407;BME280;57821;52.202;0.154;2022-10-18T03:18:50;102659.41;;;8.81;73.18
70407;BME280;57821;52.202;0.154;2022-10-18T03:21:17;102663.59;;;8.78;73.65
70407;BME280;57821;52.202;0.154;2022-10-18T03:23:43;102662.72;;;8.77;73.66
70407;BME280;57821;52.202;0.154;2022-10-18T03:26:10;102658.28;;;8.73;73.99
70407;BME280;57821;52.202;0.154;2022-10-18T03:28:36;102667.78;;;8.74;73.79
70407;BME280;57821;52.202;0.154;2022-10-18T03:31:03;102665.16;;;8.73;73.87
70407;BME280;57821;52.202;0.154;2022-10-18T03:33:30;102672.84;;;8.71;73.72
70407;BME280;57821;52.202;0.154;2022-10-18T03:35:57;102670.28;;;8.71;73.83
70407;BME280;57821;52.202;0.154;2022-10-18T03:38:23;102665.84;;;8.69;73.58
70407;BME280;57821;52.202;0.154;2022-10-18T03:40:50;102668.41;;;8.67;74.23
70407;BME280;57821;52.202;0.154;2022-10-18T03:43:17;102663.13;;;8.64;73.58
70407;BME280;57821;52.202;0.154;2022-10-18T03:45:43;102670.78;;;8.61;74.01
70407;BME280;57821;52.202;0.154;2022-10-18T03:48:10;102663.03;;;8.61;74.30
70407;BME280;57821;52.202;0.154;2022-10-18T03:50:37;102662.91;;;8.58;73.61
70407;BME280;57821;52.202;0.154;2022-10-18T03:53:03;102650.88;;;8.58;73.90
70407;BME280;57821;52.202;0.154;2022-10-18T03:55:30;102661.16;;;8.57;73.85
70407;BME280;57821;52.202;0.154;2022-10-18T03:57:57;102662.81;;;8.55;73.28
70407;BME280;57821;52.202;0.154;2022-10-18T04:00:23;102660.19;;;8.53;73.64
70407;BME280;57821;52.202;0.154;2022-10-18T04:02:50;102661.81;;;8.51;73.26
70407;BME280;57821;52.202;0.154;2022-10-18T04:05:21;102659.97;;;8.47;73.74
70407;BME280;57821;52.202;0.154;2022-10-18T04:07:48;102667.78;;;8.49;74.09
70407;BME280;57821;52.202;0.154;2022-10-18T04:10:14;102654.69;;;8.44;73.85
70407;BME280;57821;52.202;0.154;2022-10-18T04:12:41;102660.84;;;8.48;73.44
70407;BME280;57821;52.202;0.154;2022-10-18T04:15:08;102661.72;;;8.48;73.99
70407;BME280;57821;52.202;0.154;2022-10-18T04:17:34;102659.06;;;8.47;74.41
70407;BME280;57821;52.202;0.154;2022-10-18T04:20:01;102666.06;;;8.49;73.98
70407;BME280;57821;52.202;0.154;2022-10-18T04:22:27;102667.88;;;8.52;74.78
70407;BME280;57821;52.202;0.154;2022-10-18T04:24:54;102679.97;;;8.53;74.52
70407;BME280;57821;52.202;0.154;2022-10-18T04:27:20;102668.75;;;8.52;74.34
70407;BME280;57821;52.202;0.154;2022-10-18T04:29:47;102674.75;;;8.51;74.47
70407;BME280;57821;52.202;0.154;2022-10-18T04:32:14;102678.13;;;8.49;74.32
70407;BME280;57821;52.202;0.154;2022-10-18T04:34:40;102679.75;;;8.47;74.10
70407;BME280;57821;52.202;0.154;2022-10-18T04:37:10;102680.56;;;8.46;74.32
70407;BME280;57821;52.202;0.154;2022-10-18T04:39:36;102675.38;;;8.44;74.10
70407;BME280;57821;52.202;0.154;2022-10-18T04:42:03;102678.78;;;8.43;74.02
70407;BME280;57821;52.202;0.154;2022-10-18T04:44:29;102689.00;;;8.40;74.36
70407;BME280;57821;52.202;0.154;2022-10-18T04:46:55;102688.91;;;8.37;74.33
70407;BME280;57821;52.202;0.154;2022-10-18T04:49:22;102687.91;;;8.34;74.26
70407;BME280;57821;52.202;0.154;2022-10-18T04:51:48;102673.25;;;8.33;74.68
70407;BME280;57821;52.202;0.154;2022-10-18T04:54:15;102670.50;;;8.30;75.04
70407;BME280;57821;52.202;0.154;2022-10-18T04:56:41;102672.09;;;8.26;74.85
70407;BME280;57821;52.202;0.154;2022-10-18T04:59:08;102672.03;;;8.24;73.99
70407;BME280;57821;52.202;0.154;2022-10-18T05:01:34;102672.84;;;8.23;74.49
70407;BME280;57821;52.202;0.154;2022-10-18T05:04:01;102668.41;;;8.19;74.21
70407;BME280;57821;52.202;0.154;2022-10-18T05:06:27;102667.47;;;8.17;73.93
70407;BME280;57821;52.202;0.154;2022-10-18T05:08:54;102666.50;;;8.15;73.94
70407;BME280;57821;52.202;0.154;2022-10-18T05:11:20;102675.13;;;8.14;74.47
70407;BME280;57821;52.202;0.154;2022-10-18T05:13:47;102669.06;;;8.14;74.57
70407;BME280;57821;52.202;0.154;2022-10-18T05:16:16;102668.91;;;8.09;74.54
70407;BME280;57821;52.202;0.154;2022-10-18T05:18:43;102670.53;;;8.07;74.49
70407;BME280;57821;52.202;0.154;2022-10-18T05:21:09;102668.06;;;8.10;75.12
70407;BME280;57821;52.202;0.154;2022-10-18T05:23:36;102676.69;;;8.11;74.78
70407;BME280;57821;52.202;0.154;2022-10-18T05:26:06;102685.31;;;8.11;74.91
70407;BME280;57821;52.202;0.154;2022-10-18T05:28:33;102692.25;;;8.12;74.70
70407;BME280;57821;52.202;0.154;2022-10-18T05:31:06;102695.66;;;8.11;74.89
70407;BME280;57821;52.202;0.154;2022-10-18T05:33:34;102699.91;;;8.09;74.46
70407;BME280;57821;52.202;0.154;2022-10-18T05:36:01;102701.56;;;8.07;74.34
70407;BME280;57821;52.202;0.154;2022-10-18T05:38:28;102703.19;;;8.05;74.55
70407;BME280;57821;52.202;0.154;2022-10-18T05:40:54;102707.44;;;8.03;75.13
70407;BME280;57821;52.202;0.154;2022-10-18T05:43:21;102703.91;;;8.01;75.07
70407;BME280;57821;52.202;0.154;2022-10-18T05:45:50;102707.19;;;7.97;74.37
70407;BME280;57821;52.202;0.154;2022-10-18T05:48:17;102709.72;;;7.96;74.50
70407;BME280;57821;52.202;0.154;2022-10-18T05:50:44;102719.09;;;7.94;74.30
70407;BME280;57821;52.202;0.154;2022-10-18T05:53:10;102723.34;;;7.92;74.32
70407;BME280;57821;52.202;0.154;2022-10-18T05:56:00;102719.81;;;7.90;74.04
70407;BME280;57821;52.202;0.154;2022-10-18T05:58:27;102722.34;;;7.88;74.36
70407;BME280;57821;52.202;0.154;2022-10-18T06:00:57;102715.28;;;7.84;74.53
70407;BME280;57821;52.202;0.154;2022-10-18T06:03:24;102732.56;;;7.85;74.13
70407;BME280;57821;52.202;0.154;2022-10-18T06:05:50;102724.75;;;7.83;74.23
70407;BME280;57821;52.202;0.154;2022-10-18T06:08:17;102735.81;;;7.81;74.59
70407;BME280;57821;52.202;0.154;2022-10-18T06:10:43;102730.66;;;7.81;74.67
70407;BME280;57821;52.202;0.154;2022-10-18T06:13:10;102730.56;;;7.78;74.74
70407;BME280;57821;52.202;0.154;2022-10-18T06:15:36;102740.88;;;7.78;74.47
70407;BME280;57821;52.202;0.154;2022-10-18T06:18:03;102740.88;;;7.78;75.17
70407;BME280;57821;52.202;0.154;2022-10-18T06:20:29;102751.22;;;7.78;74.84
70407;BME280;57821;52.202;0.154;2022-10-18T06:22:55;102743.47;;;7.78;74.96
70407;BME280;57821;52.202;0.154;2022-10-18T06:25:22;102746.06;;;7.78;76.29
70407;BME280;57821;52.202;0.154;2022-10-18T06:27:48;102749.59;;;7.80;76.26
70407;BME280;57821;52.202;0.154;2022-10-18T06:30:15;102745.22;;;7.79;75.75
70407;BME280;57821;52.202;0.154;2022-10-18T06:32:41;102750.50;;;7.82;75.36
70407;BME280;57821;52.202;0.154;2022-10-18T06:35:08;102757.38;;;7.81;75.71
70407;BME280;57821;52.202;0.154;2022-10-18T06:37:35;102762.53;;;7.81;75.50
70407;BME280;57821;52.202;0.154;2022-10-18T06:40:01;102761.66;;;7.81;75.14
70407;BME280;57821;52.202;0.154;2022-10-18T06:42:28;102759.91;;;7.80;75.32
70407;BME280;57821;52.202;0.154;2022-10-18T06:44:55;102762.44;;;7.78;75.30
70407;BME280;57821;52.202;0.154;2022-10-18T06:47:21;102759.91;;;7.80;75.72
70407;BME280;57821;52.202;0.154;2022-10-18T06:49:48;102753.72;;;7.76;75.48
70407;BME280;57821;52.202;0.154;2022-10-18T06:52:17;102770.09;;;7.77;75.04
70407;BME280;57821;52.202;0.154;2022-10-18T06:54:44;102780.44;;;7.77;75.20
70407;BME280;57821;52.202;0.154;2022-10-18T06:57:10;102784.72;;;7.76;75.30
70407;BME280;57821;52.202;0.154;2022-10-18T06:59:37;102782.06;;;7.75;75.27
70407;BME280;57821;52.202;0.154;2022-10-18T07:02:03;102776.09;;;7.76;75.67
70407;BME280;57821;52.202;0.154;2022-10-18T07:04:30;102785.53;;;7.75;75.49
70407;BME280;57821;52.202;0.154;2022-10-18T07:06:56;102784.59;;;7.73;75.33
70407;BME280;57821;52.202;0.154;2022-10-18T07:09:23;102781.81;;;7.69;75.35
70407;BME280;57821;52.202;0.154;2022-10-18T07:11:49;102796.81;;;7.77;75.23
70407;BME280;57821;52.202;0.154;2022-10-18T07:14:16;102792.53;;;7.78;75.57
70407;BME280;57821;52.202;0.154;2022-10-18T07:16:42;102800.34;;;7.79;75.62
70407;BME280;57821;52.202;0.154;2022-10-18T07:19:09;102804.75;;;7.82;75.37
70407;BME280;57821;52.202;0.154;2022-10-18T07:21:35;102808.28;;;7.84;75.68
70407;BME280;57821;52.202;0.154;2022-10-18T07:24:02;102798.03;;;7.87;75.73
70407;BME280;57821;52.202;0.154;2022-10-18T07:26:32;102795.44;;;7.86;75.83
70407;BME280;57821;52.202;0.154;2022-10-18T07:29:08;102803.41;;;7.92;76.08
70407;BME280;57821;52.202;0.154;2022-10-18T07:31:36;102816.63;;;7.99;76.10
70407;BME280;57821;52.202;0.154;2022-10-18T07:34:04;102808.88;;;7.99;76.13
70407;BME280;57821;52.202;0.154;2022-10-18T07:36:30;102826.38;;;8.06;76.11
70407;BME280;57821;52.202;0.154;2022-10-18T07:38:57;102822.28;;;8.11;76.45
70407;BME280;57821;52.202;0.154;2022-10-18T07:41:24;102818.97;;;8.15;76.16
70407;BME280;57821;52.202;0.154;2022-10-18T07:43:51;102831.22;;;8.19;76.48
70407;BME280;57821;52.202;0.154;2022-10-18T07:46:20;102826.22;;;8.24;76.68
70407;BME280;57821;52.202;0.154;2022-10-18T07:48:47;102835.13;;;8.31;76.81
70407;BME280;57821;52.202;0.154;2022-10-18T07:51:14;102836.19;;;8.36;76.64
70407;BME280;57821;52.202;0.154;2022-10-18T07:53:40;102848.63;;;8.46;77.15
70407;BME280;57821;52.202;0.154;2022-10-18T07:56:09;102848.84;;;8.52;76.96
70407;BME280;57821;52.202;0.154;2022-10-18T07:58:36;102860.38;;;8.60;77.09
70407;BME280;57821;52.202;0.154;2022-10-18T08:01:04;102858.03;;;8.66;76.79
70407;BME280;57821;52.202;0.154;2022-10-18T08:03:32;102864.34;;;8.74;77.21
70407;BME280;57821;52.202;0.154;2022-10-18T08:05:58;102877.63;;;8.83;77.25
70407;BME280;57821;52.202;0.154;2022-10-18T08:08:25;102885.63;;;8.89;77.17
70407;BME280;57821;52.202;0.154;2022-10-18T08:10:52;102884.25;;;8.99;77.22
70407;BME280;57821;52.202;0.154;2022-10-18T08:13:19;102882.84;;;9.08;77.03
70407;BME280;57821;52.202;0.154;2022-10-18T08:15:46;102894.44;;;9.18;76.83
70407;BME280;57821;52.202;0.154;2022-10-18T08:18:13;102893.88;;;9.27;76.73
70407;BME280;57821;52.202;0.154;2022-10-18T08:20:44;102863.66;;;9.26;77.31
70407;BME280;57821;52.202;0.154;2022-10-18T08:23:10;102885.09;;;9.47;76.98
70407;BME280;57821;52.202;0.154;2022-10-18T08:25:37;102893.22;;;9.58;76.82
70407;BME280;57821;52.202;0.154;2022-10-18T08:28:05;102876.81;;;9.57;76.49
70407;BME280;57821;52.202;0.154;2022-10-18T08:30:33;102908.59;;;9.78;76.80
70407;BME280;57821;52.202;0.154;2022-10-18T08:33:01;102900.34;;;9.88;76.85
70407;BME280;57821;52.202;0.154;2022-10-18T08:35:28;102906.94;;;10.06;77.73
70407;BME280;57821;52.202;0.154;2022-10-18T08:37:54;102911.81;;;10.22;76.97
70407;BME280;57821;52.202;0.154;2022-10-18T08:40:21;102917.66;;;10.43;77.73
70407;BME280;57821;52.202;0.154;2022-10-18T08:43:11;102920.38;;;10.75;78.17
70407;BME280;57821;52.202;0.154;2022-10-18T08:45:48;102891.97;;;11.09;78.91
70407;BME280;57821;52.202;0.154;2022-10-18T08:48:37;102918.66;;;11.68;77.12
70407;BME280;57821;52.202;0.154;2022-10-18T08:51:14;102894.31;;;11.97;76.50
70407;BME280;57821;52.202;0.154;2022-10-18T08:53:53;102901.41;;;12.40;76.54
70407;BME280;57821;52.202;0.154;2022-10-18T08:56:24;102926.13;;;12.99;76.14
70407;BME280;57821;52.202;0.154;2022-10-18T08:58:51;102919.25;;;13.46;73.81
70407;BME280;57821;52.202;0.154;2022-10-18T09:01:31;102921.84;;;13.93;74.88
70407;BME280;57821;52.202;0.154;2022-10-18T09:04:28;102924.47;;;14.47;72.96
70407;BME280;57821;52.202;0.154;2022-10-18T09:07:35;102921.66;;;14.98;73.29
70407;BME280;57821;52.202;0.154;2022-10-18T09:10:45;102887.25;;;15.34;71.19
70407;BME280;57821;52.202;0.154;2022-10-18T09:15:58;102923.91;;;16.35;65.20
70407;BME280;57821;52.202;0.154;2022-10-18T09:18:39;102934.50;;;16.55;64.06
70407;BME280;57821;52.202;0.154;2022-10-18T09:21:19;102938.06;;;16.62;63.37
70407;BME280;57821;52.202;0.154;2022-10-18T09:23:48;102948.59;;;16.71;62.50
70407;BME280;57821;52.202;0.154;2022-10-18T09:26:22;102939.88;;;16.75;62.21
70407;BME280;57821;52.202;0.154;2022-10-18T09:31:45;102954.06;;;17.16;61.57
70407;BME280;57821;52.202;0.154;2022-10-18T09:34:30;102948.00;;;17.42;61.55
70407;BME280;57821;52.202;0.154;2022-10-18T09:37:00;102950.72;;;17.72;60.64
70407;BME280;57821;52.202;0.154;2022-10-18T09:39:30;102950.75;;;18.09;60.25
70407;BME280;57821;52.202;0.154;2022-10-18T09:42:02;102941.09;;;18.39;60.76
70407;BME280;57821;52.202;0.154;2022-10-18T09:44:50;102949.72;;;18.93;58.15
70407;BME280;57821;52.202;0.154;2022-10-18T09:47:23;102950.50;;;19.19;58.33
70407;BME280;57821;52.202;0.154;2022-10-18T09:50:01;102950.31;;;19.60;58.10
70407;BME280;57821;52.202;0.154;2022-10-18T09:52:37;102945.66;;;19.96;58.04
70407;BME280;57821;52.202;0.154;2022-10-18T09:55:14;102956.75;;;20.37;56.69
70407;BME280;57821;52.202;0.154;2022-10-18T09:57:51;102958.06;;;20.76;54.77
70407;BME280;57821;52.202;0.154;2022-10-18T10:00:25;102952.44;;;21.08;53.38
70407;BME280;57821;52.202;0.154;2022-10-18T10:02:54;102940.75;;;21.26;52.27
70407;BME280;57821;52.202;0.154;2022-10-18T10:05:20;102943.13;;;21.47;50.95
70407;BME280;57821;52.202;0.154;2022-10-18T10:07:48;102955.03;;;21.74;50.22
70407;BME280;57821;52.202;0.154;2022-10-18T10:10:28;102934.66;;;21.84;49.26
70407;BME280;57821;52.202;0.154;2022-10-18T10:13:13;102952.19;;;21.86;48.71
70407;BME280;57821;52.202;0.154;2022-10-18T10:15:45;102942.72;;;21.73;47.65
70407;BME280;57821;52.202;0.154;2022-10-18T10:18:23;102932.56;;;21.46;48.53
70407;BME280;57821;52.202;0.154;2022-10-18T10:20:54;102948.47;;;21.43;48.56
70407;BME280;57821;52.202;0.154;2022-10-18T10:25:55;102940.09;;;21.09;48.18
70407;BME280;57821;52.202;0.154;2022-10-18T10:28:26;102955.16;;;20.99;48.27
70407;BME280;57821;52.202;0.154;2022-10-18T10:31:26;102951.00;;;20.80;48.30
70407;BME280;57821;52.202;0.154;2022-10-18T10:34:03;102939.88;;;20.55;48.27
70407;BME280;57821;52.202;0.154;2022-10-18T10:36:31;102952.28;;;20.42;49.07
70407;BME280;57821;52.202;0.154;2022-10-18T10:41:28;102950.06;;;19.97;49.17
70407;BME280;57821;52.202;0.154;2022-10-18T10:43:55;102955.41;;;19.82;49.96
70407;BME280;57821;52.202;0.154;2022-10-18T10:46:22;102955.56;;;19.60;49.86
70407;BME280;57821;52.202;0.154;2022-10-18T10:48:51;102932.06;;;19.27;50.06
70407;BME280;57821;52.202;0.154;2022-10-18T10:51:39;102947.03;;;19.16;50.75
70407;BME280;57821;52.202;0.154;2022-10-18T10:54:17;102927.84;;;18.93;51.28
70407;BME280;57821;52.202;0.154;2022-10-18T10:59:22;102951.59;;;18.61;52.23
70407;BME280;57821;52.202;0.154;2022-10-18T11:04:40;102960.34;;;18.35;54.06
70407;BME280;57821;52.202;0.154;2022-10-18T11:13:18;102945.50;;;18.02;54.55
70407;BME280;57821;52.202;0.154;2022-10-18T11:16:09;102939.38;;;17.91;54.80
70407;BME280;57821;52.202;0.154;2022-10-18T11:18:37;102944.63;;;17.87;54.76
70407;BME280;57821;52.202;0.154;2022-10-18T11:21:14;102919.25;;;17.69;55.19
70407;BME280;57821;52.202;0.154;2022-10-18T11:23:42;102927.97;;;17.65;55.63
70407;BME280;57821;52.202;0.154;2022-10-18T11:31:48;102927.94;;;17.47;55.52
70407;BME280;57821;52.202;0.154;2022-10-18T11:34:40;102917.41;;;17.38;55.91
70407;BME280;57821;52.202;0.154;2022-10-18T11:43:23;102913.88;;;17.23;56.15
70407;BME280;57821;52.202;0.154;2022-10-18T11:57:42;102908.56;;;17.02;56.78
70407;BME280;57821;52.202;0.154;2022-10-18T12:05:29;102904.19;;;16.98;57.14
70407;BME280;57821;52.202;0.154;2022-10-18T12:10:33;102898.06;;;17.02;56.93
70407;BME280;57821;52.202;0.154;2022-10-18T12:13:43;102880.59;;;16.97;56.65
70407;BME280;57821;52.202;0.154;2022-10-18T12:16:12;102888.53;;;17.12;56.50
70407;BME280;57821;52.202;0.154;2022-10-18T12:19:21;102889.38;;;17.15;56.07
70407;BME280;57821;52.202;0.154;2022-10-18T12:21:57;102885.03;;;17.19;55.80
70407;BME280;57821;52.202;0.154;2022-10-18T12:24:29;102878.91;;;17.20;55.64
70407;BME280;57821;52.202;0.154;2022-10-18T12:26:59;102869.28;;;17.19;56.31
70407;BME280;57821;52.202;0.154;2022-10-18T12:32:24;102880.69;;;17.35;56.01
70407;BME280;57821;52.202;0.154;2022-10-18T12:34:57;102886.84;;;17.50;56.25
70407;BME280;57821;52.202;0.154;2022-10-18T12:37:37;102887.75;;;17.68;55.95
70407;BME280;57821;52.202;0.154;2022-10-18T12:40:17;102886.03;;;17.80;54.96
70407;BME280;57821;52.202;0.154;2022-10-18T12:42:48;102894.75;;;17.91;55.33
70407;BME280;57821;52.202;0.154;2022-10-18T12:45:22;102893.03;;;17.99;54.88
70407;BME280;57821;52.202;0.154;2022-10-18T12:47:49;102894.75;;;18.05;54.47
70407;BME280;57821;52.202;0.154;2022-10-18T12:50:29;102875.53;;;17.98;53.70
70407;BME280;57821;52.202;0.154;2022-10-18T12:53:46;102896.50;;;18.11;54.04
70407;BME280;57821;52.202;0.154;2022-10-18T12:55:49;102885.09;;;18.13;53.64
70407;BME280;57821;52.202;0.154;2022-10-18T12:58:21;102880.75;;;18.15;53.62
70407;BME280;57821;52.202;0.154;2022-10-18T13:16:20;102865.88;;;18.14;51.21
70407;BME280;57821;52.202;0.154;2022-10-18T13:18:59;102857.97;;;18.19;51.11
70407;BME280;57821;52.202;0.154;2022-10-18T13:24:25;102847.50;;;18.16;51.16
70407;BME280;57821;52.202;0.154;2022-10-18T13:27:13;102868.47;;;18.22;50.76
70407;BME280;57821;52.202;0.154;2022-10-18T13:38:32;102857.91;;;18.49;50.10
70407;BME280;57821;52.202;0.154;2022-10-18T13:41:21;102862.28;;;18.56;50.50
70407;BME280;57821;52.202;0.154;2022-10-18T13:46:19;102865.69;;;18.78;49.84
70407;BME280;57821;52.202;0.154;2022-10-18T13:48:53;102863.00;;;18.88;48.71
70407;BME280;57821;52.202;0.154;2022-10-18T14:08:52;102853.50;;;19.97;45.88
70407;BME280;57821;52.202;0.154;2022-10-18T14:11:29;102855.97;;;20.13;46.50
70407;BME280;57821;52.202;0.154;2022-10-18T14:14:23;102842.63;;;20.32;46.08
70407;BME280;57821;52.202;0.154;2022-10-18T14:19:35;102842.25;;;20.63;44.45
70407;BME280;57821;52.202;0.154;2022-10-18T14:24:50;102830.66;;;20.76;44.04
70407;BME280;57821;52.202;0.154;2022-10-18T14:27:19;102834.91;;;20.86;43.45
70407;BME280;57821;52.202;0.154;2022-10-18T14:29:47;102831.38;;;20.87;43.33
70407;BME280;57821;52.202;0.154;2022-10-18T14:32:25;102827.94;;;20.82;42.44
70407;BME280;57821;52.202;0.154;2022-10-18T14:34:52;102821.84;;;20.78;42.82
70407;BME280;57821;52.202;0.154;2022-10-18T14:37:29;102819.34;;;20.68;42.61
70407;BME280;57821;52.202;0.154;2022-10-18T14:39:58;102825.53;;;20.65;42.73
70407;BME280;57821;52.202;0.154;2022-10-18T14:42:26;102840.56;;;20.59;42.70
70407;BME280;57821;52.202;0.154;2022-10-18T14:44:54;102840.69;;;20.46;42.92
70407;BME280;57821;52.202;0.154;2022-10-18T14:47:27;102827.69;;;20.31;42.29
70407;BME280;57821;52.202;0.154;2022-10-18T14:49:54;102845.25;;;20.31;42.67
70407;BME280;57821;52.202;0.154;2022-10-18T14:52:30;102845.38;;;20.20;43.03
70407;BME280;57821;52.202;0.154;2022-10-18T14:55:01;102842.81;;;20.09;43.08
70407;BME280;57821;52.202;0.154;2022-10-18T14:57:33;102823.72;;;19.91;42.86
70407;BME280;57821;52.202;0.154;2022-10-18T15:00:06;102836.00;;;19.90;44.13
70407;BME280;57821;52.202;0.154;2022-10-18T15:02:37;102839.59;;;19.85;43.74
70407;BME280;57821;52.202;0.154;2022-10-18T15:05:05;102835.25;;;19.79;43.67
70407;BME280;57821;52.202;0.154;2022-10-18T15:07:32;102842.31;;;19.71;43.36
70407;BME280;57821;52.202;0.154;2022-10-18T15:10:00;102838.91;;;19.61;43.65
70407;BME280;57821;52.202;0.154;2022-10-18T15:12:29;102830.25;;;19.47;44.00
70407;BME280;57821;52.202;0.154;2022-10-18T15:15:18;102827.66;;;19.38;44.22
70407;BME280;57821;52.202;0.154;2022-10-18T15:17:47;102839.03;;;19.43;44.24
70407;BME280;57821;52.202;0.154;2022-10-18T15:20:19;102836.44;;;19.34;44.26